Data for 08/25/2006

Time Sea-Level Adjusted Pressure Absolute Pressure Temperature Relative Humidity Dew Point   
(mb) (inHg) (mb) (inHg) (C) (F) (%) (C) (F)
00:05 1015 29.97 845 24.95 18.2 64.7 38 3.6 38.5
00:10 1015 29.97 845 24.95 18.1 64.5 38 3.7 38.7
00:15 1015 29.97 845 24.95 18 64.4 38 3.8 38.9
00:20 1015 29.97 845 24.95 17.9 64.3 39 3.8 38.9
00:25 1015 29.97 844 24.92 17.8 64 39 3.8 38.8
00:30 1015 29.97 844 24.92 17.8 64 39 3.8 38.8
00:35 1015 29.97 844 24.92 17.7 63.8 40 3.9 39
00:40 1015 29.97 844 24.92 17.6 63.7 40 3.9 39
00:45 1015 29.97 844 24.92 17.5 63.5 40 3.7 38.7
00:50 1015 29.97 844 24.92 17.4 63.4 40 3.8 38.9
00:55 1015 29.97 844 24.92 17.4 63.3 40 3.8 38.8
01:00 1015 29.97 844 24.92 17.4 63.2 40 3.7 38.7
01:05 1015 29.97 844 24.92 17.4 63.2 40 3.7 38.7
01:10 1015 29.97 844 24.92 17.3 63.1 40 3.7 38.6
01:15 1015 29.97 844 24.92 17.2 63 40 3.7 38.6
01:20 1015 29.97 844 24.92 17.2 62.9 40 3.7 38.6
01:25 1015 29.97 844 24.92 17.2 62.9 40 3.7 38.6
01:30 1015 29.97 844 24.92 17.1 62.8 40 3.6 38.6
01:35 1015 29.97 844 24.92 17.1 62.7 40 3.5 38.3
01:40 1015 29.97 844 24.92 17 62.7 40 3.6 38.4
01:45 1015 29.97 844 24.92 17 62.6 40 3.5 38.3
01:50 1015 29.97 844 24.92 17 62.5 41 3.6 38.4
01:55 1015 29.97 844 24.92 16.9 62.3 40 3.4 38.2
02:00 1015 29.97 844 24.92 16.9 62.4 41 3.5 38.4
02:05 1015 29.97 844 24.92 16.8 62.3 40 3.4 38.2
02:10 1015 29.97 844 24.92 16.8 62.3 40 3.2 37.8
02:15 1015 29.97 844 24.92 16.8 62.3 40 3.2 37.8
02:20 1015 29.97 844 24.92 16.8 62.3 40 3.4 38.1
02:25 1015 29.97 844 24.92 16.8 62.2 40 3.1 37.5
02:30 1015 29.97 844 24.92 16.9 62.3 40 3.2 37.7
02:35 1015 29.97 844 24.92 16.8 62.3 39 3.1 37.5
02:40 1015 29.97 844 24.92 16.8 62.2 39 3.1 37.5
02:45 1015 29.97 844 24.92 16.8 62.2 40 3.1 37.6
02:50 1015 29.97 844 24.92 16.8 62.2 40 3.1 37.6
02:55 1015 29.97 844 24.92 16.7 62.1 40 3.1 37.5
03:00 1015 29.97 844 24.92 16.7 62.1 40 3.1 37.6
03:05 1015 29.97 844 24.92 16.7 62 40 3.2 37.7
03:10 1015 29.97 844 24.92 16.6 61.9 40 3.2 37.8
03:15 1015 29.97 844 24.92 16.6 61.9 41 3.2 37.8
03:20 1015 29.97 844 24.92 16.6 61.8 41 3.3 37.9
03:25 1015 29.97 844 24.92 16.6 61.8 41 3.2 37.8
03:30 1015 29.97 844 24.92 16.6 61.8 40 3.2 37.7
03:35 1015 29.97 844 24.92 16.6 61.8 41 3.2 37.8
03:40 1015 29.97 844 24.92 16.5 61.6 41 3.2 37.7
03:45 1015 29.97 844 24.92 16.5 61.8 40 3.2 37.7
03:50 1015 29.97 844 24.92 16.5 61.7 40 3 37.5
03:55 1015 29.97 844 24.92 16.5 61.6 41 3.1 37.6
04:00 1015 29.97 844 24.92 16.4 61.6 40 3.1 37.5
04:05 1015 29.97 844 24.92 16.4 61.5 40 3 37.4
04:10 1015 29.97 844 24.92 16.3 61.4 41 3 37.4
04:15 1015 29.97 844 24.92 16.2 61.2 41 2.9 37.3
04:20 1015 29.97 844 24.92 16.2 61.1 41 3.2 37.7
04:25 1015 29.97 844 24.92 16.1 61 41 2.8 37.1
04:30 1015 29.97 844 24.92 16.1 61 41 2.8 37
04:35 1015 29.97 844 24.92 16 60.8 40 2.6 36.7
04:40 1015 29.97 844 24.92 16 60.9 40 2.5 36.4
04:45 1015 29.97 844 24.92 16.1 60.9 40 2.5 36.5
04:50 1015 29.97 844 24.92 16 60.8 40 2.4 36.2
04:55 1015 29.97 844 24.92 16.1 61 40 2.5 36.4
05:00 1015 29.97 844 24.92 16 60.8 40 2.5 36.5
05:05 1015 29.97 844 24.92 16 60.8 40 2.4 36.3
05:10 1015 29.97 844 24.92 16 60.8 40 2.4 36.3
05:15 1015 29.97 844 24.92 15.9 60.7 40 2.4 36.2
05:20 1015 29.97 844 24.92 15.9 60.6 40 2.5 36.5
05:25 1015 29.97 844 24.92 15.7 60.3 40 2.4 36.3
05:30 1015 29.97 844 24.92 15.7 60.2 40 2.3 36.2
05:35 1015 29.97 844 24.92 15.7 60.2 40 2.3 36.2
05:40 1015 29.97 844 24.92 15.6 60 40 2.3 36.1
05:45 1015 29.97 844 24.92 15.5 60 41 2.3 36.2
05:50 1015 29.97 844 24.92 15.4 59.7 41 2.3 36.2
05:55 1015 29.97 844 24.92 15.4 59.7 41 2.4 36.3
06:00 1015 29.97 844 24.92 15.4 59.6 41 2.4 36.4
06:05 1015 29.97 844 24.92 15.3 59.6 41 2.3 36.1
06:10 1015 29.97 844 24.92 15.3 59.6 41 2.4 36.3
06:15 1015 29.97 844 24.92 15.2 59.3 42 2.4 36.3
06:20 1015 29.97 845 24.95 15 59 42 2.3 36.2
06:25 1016 30 845 24.95 14.9 58.8 43 2.5 36.4
06:30 1016 30 845 24.95 14.8 58.6 43 2.5 36.6
06:35 1016 30 845 24.95 14.6 58.3 44 2.6 36.7
06:40 1016 30 845 24.95 14.5 58.1 45 2.7 36.8
06:45 1016 30 845 24.95 14.5 58.1 45 2.7 36.9
06:50 1016 30 845 24.95 14.5 58.1 45 2.8 37
06:55 1016 30 845 24.95 14.4 57.9 46 2.9 37.2
07:00 1016 30 845 24.95 14.4 57.9 45 2.9 37.1
07:05 1016 30 845 24.95 14.4 57.9 46 3.1 37.5
07:10 1016 30 845 24.95 14.3 57.8 47 3.2 37.7
07:15 1016 30 845 24.95 14.2 57.6 47 3.3 37.9
07:20 1016 30 845 24.95 14.2 57.6 48 3.4 38
07:25 1016 30 845 24.95 14.3 57.7 47 3.3 37.9
07:30 1016 30 845 24.95 14.3 57.8 48 3.5 38.3
07:35 1016 30 845 24.95 14.4 57.8 47 3.4 38.1
07:40 1016 30 845 24.95 14.4 58 47 3.4 38.2
07:45 1016 30 846 24.98 14.5 58 48 3.5 38.4
07:50 1016 30 846 24.98 14.4 58 47 3.5 38.2
07:55 1016 30 846 24.98 14.5 58.1 48 3.6 38.4
08:00 1016 30 846 24.98 14.6 58.2 47 3.5 38.3
08:05 1016 30 846 24.98 14.6 58.4 47 3.5 38.3
08:10 1016 30 846 24.98 14.8 58.6 47 3.7 38.6
08:15 1016 30 846 24.98 14.7 58.4 47 3.6 38.5
08:20 1016 30 846 24.98 14.8 58.6 47 3.6 38.6
08:25 1016 30 846 24.98 14.9 58.9 47 3.7 38.7
08:30 1016 30 846 24.98 15 59 46 3.6 38.5
08:35 1017 30.03 846 24.98 15.2 59.4 46 3.7 38.7
08:40 1016 30 846 24.98 15.3 59.5 46 3.9 39.1
08:45 1016 30 846 24.98 15.1 59.2 47 3.8 38.9
08:50 1016 30 846 24.98 15 59.1 46 3.7 38.7
08:55 1017 30.03 846 24.98 15.1 59.3 46 3.8 38.8
09:00 1017 30.03 846 24.98 15.3 59.5 46 3.7 38.7
09:05 1017 30.03 846 24.98 15.4 59.6 45 3.7 38.7
09:10 1017 30.03 846 24.98 15.6 60 45 3.7 38.7
09:15 1017 30.03 846 24.98 15.7 60.3 45 3.8 38.8
09:20 1017 30.03 846 24.98 16.1 60.9 43 3.8 38.8
09:25 1017 30.03 846 24.98 16.2 61.2 43 3.9 38.9
09:30 1016 30 846 24.98 16.2 61.2 43 3.9 39
09:35 1017 30.03 846 24.98 16.3 61.4 44 4.1 39.3
09:40 1017 30.03 846 24.98 16.1 61 44 4 39.2
09:45 1017 30.03 846 24.98 16.3 61.3 43 3.9 39
09:50 1017 30.03 846 24.98 16.2 61.2 43 3.8 38.9
09:55 1017 30.03 846 24.98 16.2 61.2 44 4.2 39.5
10:00 1017 30.03 846 24.98 16.1 61 44 4.1 39.4
10:05 1017 30.03 846 24.98 15.9 60.6 45 4.1 39.4
10:10 1017 30.03 846 24.98 15.8 60.5 45 4.1 39.5
10:15 1017 30.03 846 24.98 15.7 60.2 46 4 39.3
10:20 1017 30.03 846 24.98 15.7 60.3 46 4.2 39.5
10:25 1017 30.03 846 24.98 15.6 60.2 46 4.1 39.4
10:30 1017 30.03 846 24.98 15.6 60.2 46 4.3 39.7
10:35 1017 30.03 847 25.01 15.6 60.2 46 4.3 39.7
10:40 1017 30.03 847 25.01 15.6 60.2 47 4.4 39.9
10:45 1018 30.06 847 25.01 15.7 60.3 47 4.5 40.2
10:50 1017 30.03 847 25.01 15.7 60.3 47 4.4 40
10:55 1018 30.06 847 25.01 15.7 60.2 47 4.6 40.2
11:00 1018 30.06 847 25.01 15.9 60.6 46 4.4 39.9
11:05 1018 30.06 847 25.01 15.9 60.7 46 4.5 40.2
11:10 1018 30.06 847 25.01 16 60.7 46 4.6 40.3
11:15 1018 30.06 847 25.01 16 60.8 46 4.6 40.2
11:20 1018 30.06 847 25.01 16.2 61.1 47 4.8 40.7
11:25 1018 30.06 847 25.01 16.4 61.5 45 4.7 40.4
11:30 1018 30.06 847 25.01 16.5 61.7 45 4.8 40.6
11:35 1018 30.06 847 25.01 16.6 61.8 44 4.5 40
11:40 1018 30.06 847 25.01 17 62.6 44 4.7 40.4
11:45 1018 30.06 847 25.01 17.1 62.9 43 4.7 40.5
11:50 1018 30.06 847 25.01 17.1 62.8 44 5 41
11:55 1018 30.06 847 25.01 17.2 63 44 5 41.1
12:00 1018 30.06 847 25.01 17.9 64.2 42 4.9 40.8
12:05 1018 30.06 847 25.01 18.4 65.1 41 5.2 41.3
12:10 1018 30.06 847 25.01 18.4 65.1 42 5.2 41.4
12:15 1018 30.06 847 25.01 18.4 65.2 42 5.3 41.5
12:20 1018 30.06 847 25.01 18.7 65.6 41 5.3 41.5
12:25 1018 30.06 847 25.01 19.1 66.4 40 5.4 41.8
12:30 1018 30.06 847 25.01 18.8 65.9 41 5.5 41.9
12:35 1018 30.06 847 25.01 18.3 65 42 5.2 41.3
12:40 1018 30.06 847 25.01 18.5 65.4 42 5.6 42.1
12:45 1018 30.06 847 25.01 18.5 65.3 43 5.7 42.2
12:50 1018 30.06 847 25.01 18.1 64.5 43 5.4 41.7
12:55 1018 30.06 847 25.01 18.1 64.5 43 5.5 41.8
13:00 1018 30.06 847 25.01 18.2 64.8 42 5.4 41.7
13:05 1018 30.06 847 25.01 18.8 65.8 42 5.7 42.3
13:10 1018 30.06 847 25.01 18.8 65.8 42 5.6 42.1
13:15 1018 30.06 847 25.01 18.6 65.5 43 6 42.8
13:20 1018 30.06 847 25.01 19.1 66.4 41 5.8 42.4
13:25 1018 30.06 847 25.01 19 66.1 41 5.5 41.9
13:30 1017 30.03 847 25.01 18.8 65.8 42 5.8 42.5
13:35 1017 30.03 847 25.01 19 66.2 40 5.3 41.6
13:40 1017 30.03 847 25.01 19.3 66.7 40 5.6 42
13:45 1017 30.03 847 25.01 19.4 66.9 39 5.2 41.4
13:50 1017 30.03 847 25.01 19.5 67.2 40 5.5 42
13:55 1018 30.06 847 25.01 19.5 67.1 39 5.5 41.9
14:00 1017 30.03 847 25.01 19.8 67.6 39 5.5 41.9
14:05 1017 30.03 847 25.01 19.9 67.8 36 4.4 40
14:10 1017 30.03 847 25.01 19.7 67.5 39 5.4 41.7
14:15 1017 30.03 847 25.01 19.6 67.2 38 5.1 41.2
14:20 1017 30.03 847 25.01 19.5 67 39 5.2 41.3
14:25 1018 30.06 847 25.01 19.4 66.8 38 4.9 40.8
14:30 1018 30.06 847 25.01 19.3 66.8 39 5.1 41.2
14:35 1017 30.03 847 25.01 19.7 67.5 37 4.9 40.8
14:40 1018 30.06 847 25.01 19.6 67.3 39 5.4 41.7
14:45 1018 30.06 847 25.01 19.3 66.8 40 5.5 41.9
14:50 1018 30.06 847 25.01 18.9 66 41 5.4 41.8
14:55 1018 30.06 847 25.01 18.7 65.7 41 5.4 41.8
15:00 1018 30.06 847 25.01 18.6 65.5 41 5.4 41.7
15:05 1018 30.06 847 25.01 18.5 65.3 42 5.4 41.7
15:10 1018 30.06 847 25.01 18.5 65.3 42 5.4 41.7
15:15 1018 30.06 847 25.01 18.4 65.2 42 5.4 41.8
15:20 1018 30.06 847 25.01 18.3 64.9 43 5.5 41.9
15:25 1018 30.06 847 25.01 18.3 64.9 43 5.5 41.9
15:30 1018 30.06 848 25.04 18.3 64.9 44 5.9 42.7
15:35 1018 30.06 847 25.01 18.1 64.7 45 6.2 43.2
15:40 1018 30.06 847 25.01 17.9 64.3 47 6.6 43.9
15:45 1017 30.03 847 25.01 17.9 64.2 47 6.5 43.7
15:50 1017 30.03 847 25.01 18.1 64.5 48 6.9 44.4
15:55 1017 30.03 847 25.01 18 64.5 51 8 46.4
16:00 1018 30.06 847 25.01 17.9 64.2 51 7.6 45.7
16:05 1018 30.06 847 25.01 18 64.4 49 7.3 45.2
16:10 1018 30.06 847 25.01 18.2 64.8 49 7.5 45.6
16:15 1018 30.06 847 25.01 18.7 65.7 48 7.5 45.6
16:20 1018 30.06 847 25.01 18.7 65.7 47 7.2 45
16:25 1017 30.03 847 25.01 18.3 64.9 48 7.3 45.2
16:30 1017 30.03 847 25.01 18.1 64.5 48 7 44.6
16:35 1017 30.03 847 25.01 18 64.3 50 7.4 45.3
16:40 1017 30.03 847 25.01 18.1 64.5 50 7.5 45.5
16:45 1017 30.03 847 25.01 17.9 64.2 50 7.4 45.4
16:50 1018 30.06 847 25.01 17.6 63.7 51 7.4 45.3
16:55 1017 30.03 847 25.01 17.5 63.5 51 7.4 45.4
17:00 1018 30.06 847 25.01 17.5 63.5 51 7.5 45.4
17:05 1018 30.06 847 25.01 17.4 63.4 52 7.6 45.7
17:10 1017 30.03 847 25.01 17.5 63.5 51 7.5 45.4
17:15 1017 30.03 847 25.01 17.5 63.6 51 7.3 45.2
17:20 1017 30.03 847 25.01 17.5 63.5 51 7.2 45
17:25 1018 30.06 847 25.01 17.6 63.7 50 7.1 44.7
17:30 1018 30.06 847 25.01 17.5 63.6 50 7.1 44.7
17:35 1018 30.06 847 25.01 17.5 63.5 51 7.3 45.1
17:40 1018 30.06 847 25.01 17.3 63.2 51 7.3 45.1
17:45 1018 30.06 847 25.01 17.5 63.5 51 7.5 45.4
17:50 1018 30.06 847 25.01 17.5 63.4 51 7.4 45.3
17:55 1018 30.06 847 25.01 17.3 63.1 51 7.3 45.1
18:00 1018 30.06 847 25.01 17.2 62.9 52 7.2 45
18:05 1018 30.06 847 25.01 17 62.6 52 7.1 44.8
18:10 1018 30.06 847 25.01 16.9 62.4 52 7 44.6
18:15 1018 30.06 847 25.01 16.7 62.1 52 6.8 44.3
18:20 1018 30.06 847 25.01 16.7 62.1 52 6.8 44.3
18:25 1018 30.06 847 25.01 16.7 62.1 52 6.8 44.3
18:30 1018 30.06 847 25.01 16.6 61.9 52 6.8 44.2
18:35 1018 30.06 847 25.01 16.6 61.8 52 6.7 44.1
18:40 1018 30.06 847 25.01 16.6 61.8 52 6.8 44.2
18:45 1018 30.06 847 25.01 16.5 61.7 52 6.6 44
18:50 1018 30.06 847 25.01 16.6 61.8 52 6.7 44
18:55 1018 30.06 847 25.01 16.5 61.8 52 6.8 44.2
19:00 1018 30.06 848 25.04 16.4 61.6 52 6.8 44.2
19:05 1018 30.06 847 25.01 16.4 61.5 53 7 44.6
19:10 1018 30.06 848 25.04 16.4 61.5 53 7 44.6
19:15 1018 30.06 848 25.04 16.2 61.2 54 7.1 44.8
19:20 1018 30.06 848 25.04 16.1 61 55 7.1 44.8
19:25 1019 30.09 848 25.04 16.1 61 55 7.3 45.1
19:30 1019 30.09 848 25.04 16.1 60.9 56 7.3 45.2
19:35 1019 30.09 848 25.04 16.1 61 56 7.4 45.4
19:40 1019 30.09 848 25.04 16 60.9 56 7.4 45.4
19:45 1019 30.09 848 25.04 16 60.8 57 7.5 45.5
19:50 1019 30.09 848 25.04 15.9 60.6 56 7.1 44.8
19:55 1019 30.09 848 25.04 15.8 60.5 56 7.1 44.8
20:00 1018 30.06 848 25.04 15.7 60.3 56 7 44.7
20:05 1019 30.09 848 25.04 15.6 60.2 56 7 44.6
20:10 1019 30.09 848 25.04 15.6 60.1 57 7.2 44.9
20:15 1019 30.09 848 25.04 15.6 60 57 7.1 44.9
20:20 1019 30.09 848 25.04 15.5 59.9 57 7 44.6
20:25 1019 30.09 848 25.04 15.5 59.9 58 7.3 45.1
20:30 1019 30.09 848 25.04 15.4 59.8 58 7.2 45
20:35 1019 30.09 848 25.04 15.4 59.8 58 7.2 45
20:40 1019 30.09 848 25.04 15.4 59.7 58 7.2 44.9
20:45 1019 30.09 848 25.04 15.4 59.6 58 7.1 44.8
20:50 1019 30.09 848 25.04 15.4 59.6 57 7 44.5
20:55 1019 30.09 848 25.04 15.3 59.6 57 6.8 44.3
21:00 1019 30.09 849 25.07 15.3 59.5 56 6.7 44
21:05 1019 30.09 849 25.07 15.3 59.5 55 6.5 43.7
21:10 1019 30.09 849 25.07 15.2 59.4 55 6.4 43.6
21:15 1019 30.09 849 25.07 15.2 59.4 55 6.3 43.4
21:20 1019 30.09 849 25.07 15.2 59.3 55 6.2 43.2
21:25 1020 30.12 849 25.07 15.1 59.3 54 6 42.8
21:30 1020 30.12 849 25.07 15.2 59.3 54 6 42.8
21:35 1020 30.12 849 25.07 15.1 59.2 53 5.8 42.4
21:40 1020 30.12 849 25.07 15.2 59.3 53 5.7 42.3
21:45 1020 30.12 849 25.07 15.2 59.4 52 5.5 42
21:50 1020 30.12 849 25.07 15.2 59.4 52 5.6 42
21:55 1020 30.12 849 25.07 15.1 59.3 52 5.5 41.9
22:00 1020 30.12 849 25.07 15.1 59.2 52 5.5 41.9
22:05 1020 30.12 849 25.07 15.1 59.1 52 5.5 41.8
22:10 1020 30.12 849 25.07 15.1 59.2 51 5.1 41.3
22:15 1020 30.12 849 25.07 15.2 59.3 51 5.1 41.2
22:20 1020 30.12 849 25.07 15.2 59.4 51 5.1 41.2
22:25 1020 30.12 849 25.07 15.2 59.3 51 5.2 41.4
22:30 1020 30.12 849 25.07 15.2 59.3 51 5.2 41.4
22:35 1020 30.12 849 25.07 15.1 59.2 52 5.4 41.6
22:40 1020 30.12 849 25.07 15.1 59.1 52 5.4 41.7
22:45 1020 30.12 849 25.07 15.1 59.1 52 5.4 41.8
22:50 1020 30.12 849 25.07 15 59 52 5.4 41.7
22:55 1020 30.12 849 25.07 14.9 58.8 53 5.6 42.1
23:00 1020 30.12 849 25.07 14.9 58.8 54 5.7 42.2
23:05 1020 30.12 849 25.07 14.9 58.7 53 5.6 42
23:10 1020 30.12 849 25.07 14.9 58.9 53 5.6 42
23:15 1020 30.12 849 25.07 14.9 58.8 53 5.5 41.8
23:20 1020 30.12 849 25.07 14.9 58.8 52 5.3 41.5
23:25 1020 30.12 849 25.07 14.9 58.7 52 5.3 41.5
23:30 1020 30.12 849 25.07 14.8 58.7 52 5.2 41.4
23:35 1020 30.12 849 25.07 14.9 58.8 52 5.3 41.6
23:40 1020 30.12 849 25.07 14.9 58.8 53 5.4 41.7
23:45 1020 30.12 849 25.07 14.8 58.7 53 5.5 41.9
23:50 1020 30.12 849 25.07 14.8 58.6 54 5.6 42
23:55 1020 30.12 849 25.07 14.7 58.5 55 5.9 42.6
24:00 1019 30.09 849 25.07 14.6 58.3 56 6.1 42.9